createdAt,value
2018-02-01T00:00:25.875Z,5.9
2018-02-01T00:05:15.823Z,5.9
2018-02-01T00:10:05.101Z,5.8
2018-02-01T00:15:02.838Z,5.8
2018-02-01T00:20:03.087Z,5.7
2018-02-01T00:25:18.530Z,5.7
2018-02-01T00:30:05.332Z,5.6
2018-02-01T00:35:08.047Z,5.6
2018-02-01T00:40:02.736Z,5.6
2018-02-01T00:45:05.465Z,5.5
2018-02-01T00:50:20.327Z,5.5
2018-02-01T00:55:02.906Z,5.5
2018-02-01T01:00:20.932Z,5.4
2018-02-01T01:05:12.534Z,5.3
2018-02-01T01:10:03.218Z,5.3
2018-02-01T01:15:05.007Z,5.2
2018-02-01T01:20:05.861Z,5.2
2018-02-01T01:25:05.032Z,5.2
2018-02-01T01:30:10.952Z,5.1
2018-02-01T01:35:02.437Z,5.1
2018-02-01T01:40:08.223Z,5.1
2018-02-01T01:45:08.368Z,5.1
2018-02-01T01:50:05.149Z,5.1
2018-02-01T01:55:02.769Z,5.1
2018-02-01T02:00:25.863Z,5.1
2018-02-01T02:05:03.091Z,5.1
2018-02-01T02:10:02.770Z,5.1
2018-02-01T02:15:13.178Z,5
2018-02-01T02:20:02.480Z,5
2018-02-01T02:25:02.569Z,5
2018-02-01T02:30:02.810Z,5
2018-02-01T02:35:02.969Z,5
2018-02-01T02:40:10.254Z,4.9
2018-02-01T02:45:02.909Z,4.9
2018-02-01T02:50:03.200Z,4.8
2018-02-01T02:55:02.418Z,4.8
2018-02-01T03:00:02.675Z,4.8
2018-02-01T03:05:02.851Z,4.7
2018-02-01T03:10:05.146Z,4.7
2018-02-01T03:15:05.397Z,4.7
2018-02-01T03:20:05.234Z,4.7
2018-02-01T03:25:15.559Z,4.7
2018-02-01T03:30:05.271Z,4.7
2018-02-01T03:35:15.551Z,4.6
2018-02-01T03:40:08.309Z,4.6
2018-02-01T03:45:07.476Z,4.6
2018-02-01T03:50:05.259Z,4.5
2018-02-01T03:55:08.016Z,4.5
2018-02-01T04:00:08.488Z,4.5
2018-02-01T04:05:07.546Z,4.5
2018-02-01T04:10:03.252Z,4.5
2018-02-01T04:15:04.982Z,4.5
2018-02-01T04:20:21.127Z,4.5
2018-02-01T04:25:07.647Z,4.5
2018-02-01T04:30:02.908Z,4.5
2018-02-01T04:35:05.655Z,4.5
2018-02-01T04:40:08.369Z,4.5
2018-02-01T04:45:05.019Z,4.5
2018-02-01T04:50:05.808Z,4.5
2018-02-01T04:55:05.026Z,4.4
2018-02-01T05:00:05.795Z,4.5
2018-02-01T05:05:02.489Z,4.5
2018-02-01T05:10:05.676Z,4.4
2018-02-01T05:15:05.857Z,4.4
2018-02-01T05:20:03.191Z,4.4
2018-02-01T05:25:05.850Z,4.4
2018-02-01T05:30:18.268Z,4.4
2018-02-01T05:35:03.198Z,4.4
2018-02-01T05:40:08.051Z,4.2
2018-02-01T05:45:05.734Z,4.2
2018-02-01T05:50:05.548Z,4.2
2018-02-01T05:55:03.289Z,4.1
2018-02-01T06:00:02.560Z,4.1
2018-02-01T06:05:02.669Z,4.1
2018-02-01T06:10:07.494Z,4
2018-02-01T06:15:07.741Z,4
2018-02-01T06:20:03.034Z,4
2018-02-01T06:25:03.270Z,3.9
2018-02-01T06:30:05.809Z,3.7
2018-02-01T06:35:05.863Z,3.6
2018-02-01T06:40:05.036Z,3.5
2018-02-01T06:45:02.686Z,3.5
2018-02-01T06:50:02.924Z,3.4
2018-02-01T06:55:05.658Z,3.2
2018-02-01T07:00:13.159Z,3.2
2018-02-01T07:05:03.098Z,3.2
2018-02-01T07:10:02.755Z,3.1
2018-02-01T07:15:02.968Z,3.2
2018-02-01T07:20:05.842Z,3.1
2018-02-01T07:25:10.106Z,3.1
2018-02-01T07:30:03.422Z,3.1
2018-02-01T07:35:02.476Z,3.1
2018-02-01T07:40:05.803Z,3.2
2018-02-01T07:45:05.007Z,3.2
2018-02-01T07:50:08.253Z,3.2
2018-02-01T07:55:07.414Z,3.2
2018-02-01T08:00:07.724Z,3.2
2018-02-01T08:05:02.888Z,3.2
2018-02-01T08:10:02.656Z,3.2
2018-02-01T08:15:05.394Z,3.2
2018-02-01T08:20:02.732Z,3.2
2018-02-01T08:25:10.431Z,3.4
2018-02-01T08:30:02.723Z,3.4
2018-02-01T08:35:28.192Z,3.5
2018-02-01T08:40:02.924Z,3.5
2018-02-01T08:45:08.281Z,3.5
2018-02-01T08:50:05.025Z,3.5
2018-02-01T08:55:02.837Z,3.5
2018-02-01T09:00:03.054Z,3.5
2018-02-01T09:05:08.296Z,3.6
2018-02-01T09:10:02.908Z,3.6
2018-02-01T09:15:03.220Z,3.6
2018-02-01T09:20:07.684Z,3.7
2018-02-01T09:25:07.887Z,3.8
2018-02-01T09:30:25.956Z,3.8
2018-02-01T09:35:05.713Z,3.9
2018-02-01T09:40:09.961Z,4
2018-02-01T09:45:02.534Z,4
2018-02-01T09:50:07.866Z,4.3
2018-02-01T09:55:08.007Z,4.4
2018-02-01T10:00:05.818Z,4.6
2018-02-01T10:05:05.009Z,4.7
2018-02-01T10:10:10.186Z,4.8
2018-02-01T10:15:05.348Z,5
2018-02-01T10:20:05.161Z,5.1
2018-02-01T10:25:02.793Z,5.1
2018-02-01T10:30:08.126Z,5.3
2018-02-01T10:35:05.848Z,5.4
2018-02-01T10:40:02.540Z,5.4
2018-02-01T10:45:02.792Z,5.4
2018-02-01T10:50:03.099Z,5.4
2018-02-01T10:55:08.295Z,5.2
2018-02-01T11:00:02.664Z,5.2
2018-02-01T11:05:02.748Z,5.3
2018-02-01T11:10:02.463Z,3.2
2018-02-01T11:15:02.741Z,5.3
2018-02-01T11:20:03.029Z,5.3
2018-02-01T11:25:08.355Z,5.4
2018-02-01T11:30:02.572Z,5.5
2018-02-01T11:35:05.284Z,5.4
2018-02-01T11:40:02.992Z,5.3
2018-02-01T11:45:03.192Z,5.4
2018-02-01T11:50:04.977Z,5.6
2018-02-01T11:55:02.701Z,5.6
2018-02-01T12:00:02.985Z,5.6
2018-02-01T12:05:03.070Z,5.8
2018-02-01T12:10:07.928Z,6.1
2018-02-01T12:15:05.518Z,6.1
2018-02-01T12:20:02.757Z,6.2
2018-02-01T12:25:02.970Z,6.2
2018-02-01T12:30:05.799Z,6.5
2018-02-01T12:35:02.459Z,6.4
2018-02-01T12:40:03.159Z,6.5
2018-02-01T12:45:02.443Z,6.6
2018-02-01T12:50:05.139Z,7
2018-02-01T12:55:05.338Z,7.2
2018-02-01T13:00:05.118Z,7.7
2018-02-01T13:05:05.350Z,7.7
2018-02-01T13:10:03.072Z,7.7
2018-02-01T13:15:08.328Z,7.5
2018-02-01T13:20:10.214Z,7.6
2018-02-01T13:25:02.901Z,7.6
2018-02-01T13:30:08.265Z,8
2018-02-01T13:35:23.554Z,8
2018-02-01T13:40:13.354Z,8.2
2018-02-01T13:45:02.476Z,8.2
2018-02-01T13:50:10.374Z,8.5
2018-02-01T13:55:25.742Z,8.7
2018-02-01T14:00:08.076Z,8.7
2018-02-01T14:05:05.751Z,8.4
2018-02-01T14:10:20.284Z,8.3
2018-02-01T14:15:17.912Z,8.3
2018-02-01T14:20:08.324Z,8.4
2018-02-01T14:25:02.460Z,8.4
2018-02-01T14:30:02.722Z,8.5
2018-02-01T14:35:08.007Z,8.5
2018-02-01T14:40:05.329Z,8.3
2018-02-01T14:45:02.990Z,8.2
2018-02-01T14:50:20.940Z,8
2018-02-01T14:55:02.652Z,8
2018-02-01T15:00:03.081Z,8.1
2018-02-01T15:05:05.897Z,7.4
2018-02-01T15:10:02.789Z,7.4
2018-02-01T15:15:05.571Z,7
2018-02-01T15:20:07.953Z,6.8
2018-02-01T15:25:05.661Z,6.6
2018-02-01T15:30:02.913Z,6.6
2018-02-01T15:35:05.629Z,6.3
2018-02-01T15:40:05.792Z,6.2
2018-02-01T15:45:07.576Z,6.1
2018-02-01T15:50:02.849Z,6.1
2018-02-01T15:55:03.082Z,6
2018-02-01T16:00:05.814Z,5.9
2018-02-01T16:05:02.490Z,5.9
2018-02-01T16:10:03.211Z,5.9
2018-02-01T16:15:02.368Z,5.8
2018-02-01T16:20:05.211Z,5.6
2018-02-01T16:25:05.406Z,5.4
2018-02-01T16:30:05.178Z,5.3
2018-02-01T16:35:05.317Z,5.1
2018-02-01T16:40:10.579Z,5
2018-02-01T16:45:05.711Z,4.9
2018-02-01T16:50:02.921Z,4.9
2018-02-01T16:55:05.650Z,4.8
2018-02-01T17:00:08.078Z,4.7
2018-02-01T17:05:08.234Z,4.5
2018-02-01T17:10:02.968Z,4.5
2018-02-01T17:15:08.113Z,4.3
2018-02-01T17:20:02.417Z,4.3
2018-02-01T17:25:02.587Z,4.2
2018-02-01T17:30:02.886Z,4
2018-02-01T17:35:03.162Z,3.9
2018-02-01T17:40:02.835Z,3.8
2018-02-01T17:45:10.591Z,3.6
2018-02-01T17:50:05.388Z,3.6
2018-02-01T17:55:05.642Z,3.5
2018-02-01T18:00:07.937Z,3.4
2018-02-01T18:05:03.199Z,3.5
2018-02-01T18:10:02.854Z,3.4
2018-02-01T18:15:08.156Z,3.4
2018-02-01T18:20:07.555Z,3.4
2018-02-01T18:25:05.306Z,3.4
2018-02-01T18:30:02.526Z,3.4
2018-02-01T18:35:02.816Z,3.3
2018-02-01T18:40:02.638Z,3.3
2018-02-01T18:45:02.805Z,3.2
2018-02-01T18:50:05.625Z,3.1
2018-02-01T18:55:03.338Z,3.1
2018-02-01T19:00:02.570Z,3.1
2018-02-01T19:05:02.782Z,3.2
2018-02-01T19:10:02.519Z,3.1
2018-02-01T19:15:07.850Z,3
2018-02-01T19:20:05.691Z,2.9
2018-02-01T19:25:03.236Z,2.9
2018-02-01T19:30:04.997Z,2.8
2018-02-01T19:35:05.225Z,2.7
2018-02-01T19:40:05.036Z,2.7
2018-02-01T19:45:02.582Z,2.7
2018-02-01T19:50:02.782Z,2.7
2018-02-01T19:55:02.995Z,2.7
2018-02-01T20:00:03.187Z,2.6
2018-02-01T20:05:02.397Z,2.5
2018-02-01T20:10:08.224Z,2.3
2018-02-01T20:15:07.510Z,2.2
2018-02-01T20:20:05.353Z,2.2
2018-02-01T20:25:04.897Z,2.2
2018-02-01T20:30:08.394Z,2.1
2018-02-01T20:35:03.180Z,2.1
2018-02-01T20:40:05.537Z,1.9
2018-02-01T20:45:10.775Z,1.9
2018-02-01T20:50:03.005Z,1.9
2018-02-01T20:55:18.373Z,1.8
2018-02-01T21:00:05.136Z,1.8
2018-02-01T21:05:07.913Z,1.8
2018-02-01T21:10:05.065Z,1.9
2018-02-01T21:15:07.803Z,1.9
2018-02-01T21:20:13.250Z,1.9
2018-02-01T21:25:03.277Z,1.9
2018-02-01T21:30:05.120Z,2
2018-02-01T21:35:02.728Z,2
2018-02-01T21:40:02.388Z,2
2018-02-01T21:45:20.302Z,2.2
2018-02-01T21:50:05.003Z,2.3
2018-02-01T21:55:07.742Z,2.4
2018-02-01T22:00:02.960Z,2.4
2018-02-01T22:05:05.693Z,2.4
2018-02-01T22:10:02.495Z,2.4
2018-02-01T22:15:02.728Z,2.3
2018-02-01T22:20:10.639Z,2.1
2018-02-01T22:25:05.855Z,2
2018-02-01T22:30:05.605Z,2
2018-02-01T22:35:08.268Z,2.1
2018-02-01T22:40:05.528Z,2.1
2018-02-01T22:45:05.831Z,2.1
2018-02-01T22:50:08.123Z,2.1
2018-02-01T22:55:05.698Z,2.1
2018-02-01T23:00:02.892Z,2.1
2018-02-01T23:05:08.144Z,2
2018-02-01T23:10:05.368Z,2
2018-02-01T23:15:05.604Z,2.1
2018-02-01T23:20:02.966Z,2.1
2018-02-01T23:25:05.587Z,2.1
2018-02-01T23:30:07.855Z,2.1
2018-02-01T23:35:05.546Z,2.1
2018-02-01T23:40:05.761Z,2.1
2018-02-01T23:45:02.406Z,2.1
2018-02-01T23:50:05.114Z,2.1
2018-02-01T23:55:05.294Z,2
